Portada
METAR-TAF:

METAR-TAF

Aeropuertos :

Anchorage, Alaska, Estados Unidos

latitud: 61-11N, longitud: 149-58W, altitud: 22 m

Observación

El informe se hizo hace 5 horas y 2 minutos, a las 13:53 UTC
Viento 4 kt del norte
Temperatura 11°C
Humedad 100%
Presión 1009 hPa
Visibilidad: 16.1 km
Cielo nuboso a una altura de 200 ft
Cielo cubierto a una altura de 6500 ft

METAR: PALH 151353Z 01004KT 10SM BKN002 OVC065 11/11 A2979 RMK AO2 SLP089 T01110111

Hora: 10:55 (18:55 UTC)


TAF: falta

Observaciones y pronósticos meteorológicos de más de 4000 aeropuertos (mensajes METAR y TAF).

Los puntos amarillos y rojos representan las estaciones disponibles.

Ponga el ratón en el punto deseado para ver el nombre de la estación.

Haga clic para ver las observaciones y los pronósticos meteorológicos.

Para cambiar el mapa : haga clic en los botones verdes con una cruz de color negro para hacer un zoom, en el botón verde con un guión para alejar o en las flechas verdes para mapas adyacentes.


METAR-TAF: